Time,TemperatureF,DewpointF,PressureIn,WindDirection,WindDirectionDegrees,WindSpeedMPH,WindSpeedGustMPH,Humidity,HourlyPrecipIn,Conditions,Clouds,dailyrainin,SoftwareType,DateUTC
2013-04-24 00:02:00,46.6,39.8,30.33,North,-999,0.0,0.0,77,0.00,,,0.00,pywws,2013-04-24 07:02:00,
2013-04-24 00:07:00,45.9,40.0,30.34,North,-999,0.0,0.0,80,0.00,,,0.00,pywws,2013-04-24 07:07:00,
2013-04-24 00:12:00,45.5,40.0,30.34,North,-999,0.0,0.0,81,0.00,,,0.00,pywws,2013-04-24 07:12:00,
2013-04-24 00:17:00,43.5,37.8,30.34,North,-999,0.0,0.0,80,0.00,,,0.00,pywws,2013-04-24 07:17:00,
2013-04-24 00:22:00,43.0,36.9,30.34,North,-999,0.0,0.0,79,0.00,,,0.00,pywws,2013-04-24 07:22:00,
2013-04-24 00:27:00,43.2,37.4,30.34,North,-999,0.0,0.0,80,0.00,,,0.00,pywws,2013-04-24 07:27:00,
2013-04-24 00:32:00,43.0,37.9,30.34,North,-999,0.0,0.0,82,0.00,,,0.00,pywws,2013-04-24 07:32:00,
2013-04-24 00:37:00,43.2,38.0,30.34,North,-999,0.0,0.0,82,0.00,,,0.00,pywws,2013-04-24 07:37:00,
2013-04-24 00:42:00,42.3,37.5,30.35,North,-999,0.0,0.0,83,0.00,,,0.00,pywws,2013-04-24 07:42:00,
2013-04-24 00:47:00,41.5,36.8,30.34,North,-999,0.0,0.0,83,0.00,,,0.00,pywws,2013-04-24 07:47:00,
2013-04-24 01:02:00,41.5,36.8,30.34,North,-999,0.0,0.0,83,0.00,,,0.00,pywws,2013-04-24 08:02:00,
2013-04-24 01:07:00,41.2,36.7,30.34,North,-999,0.0,0.0,84,0.00,,,0.00,pywws,2013-04-24 08:07:00,
2013-04-24 01:12:00,41.2,36.7,30.34,North,-999,0.0,0.0,84,0.00,,,0.00,pywws,2013-04-24 08:12:00,
2013-04-24 01:17:00,41.0,36.5,30.34,North,-999,0.0,0.0,84,0.00,,,0.00,pywws,2013-04-24 08:17:00,
2013-04-24 01:22:00,40.8,36.7,30.34,North,-999,0.0,0.0,85,0.00,,,0.00,pywws,2013-04-24 08:22:00,
2013-04-24 01:27:00,40.6,36.5,30.34,North,-999,0.0,0.0,85,0.00,,,0.00,pywws,2013-04-24 08:27:00,
2013-04-24 01:32:00,40.6,36.5,30.34,North,-999,0.0,0.0,85,0.00,,,0.00,pywws,2013-04-24 08:32:00,
2013-04-24 01:37:00,40.5,36.6,30.34,North,-999,0.0,0.0,86,0.00,,,0.00,pywws,2013-04-24 08:37:00,
2013-04-24 01:42:00,40.5,36.6,30.34,North,-999,0.0,0.0,86,0.00,,,0.00,pywws,2013-04-24 08:42:00,
2013-04-24 01:47:00,40.3,36.4,30.34,North,-999,0.0,0.0,86,0.00,,,0.00,pywws,2013-04-24 08:47:00,
2013-04-24 02:02:00,40.3,36.4,30.34,North,-999,0.0,0.0,86,0.00,,,0.00,pywws,2013-04-24 09:02:00,
2013-04-24 02:07:00,39.7,36.2,30.35,North,-999,0.0,0.0,87,0.00,,,0.00,pywws,2013-04-24 09:07:00,
2013-04-24 02:12:00,39.4,35.8,30.35,North,-999,0.0,0.0,87,0.00,,,0.00,pywws,2013-04-24 09:12:00,
2013-04-24 02:17:00,39.2,35.7,30.35,North,-999,0.0,0.0,87,0.00,,,0.00,pywws,2013-04-24 09:17:00,
2013-04-24 02:22:00,39.2,35.7,30.35,North,-999,0.0,0.0,87,0.00,,,0.00,pywws,2013-04-24 09:22:00,
2013-04-24 02:27:00,39.0,35.8,30.35,North,-999,0.0,0.0,88,0.00,,,0.00,pywws,2013-04-24 09:27:00,
2013-04-24 02:32:00,39.0,35.8,30.35,North,-999,0.0,0.0,88,0.00,,,0.00,pywws,2013-04-24 09:32:00,
2013-04-24 02:37:00,38.8,35.6,30.35,North,-999,0.0,0.0,88,0.00,,,0.00,pywws,2013-04-24 09:37:00,
2013-04-24 02:42:00,38.8,35.6,30.35,North,-999,0.0,0.0,88,0.00,,,0.00,pywws,2013-04-24 09:42:00,
2013-04-24 02:47:00,38.7,35.4,30.34,North,-999,0.0,0.0,88,0.00,,,0.00,pywws,2013-04-24 09:47:00,
2013-04-24 02:52:00,38.5,35.2,30.34,North,-999,0.0,0.0,88,0.00,,,0.00,pywws,2013-04-24 09:52:00,
2013-04-24 02:57:00,38.3,35.1,30.35,North,-999,0.0,0.0,88,0.00,,,0.00,pywws,2013-04-24 09:57:00,
2013-04-24 03:02:00,38.5,35.2,30.35,North,-999,0.0,0.0,88,0.00,,,0.00,pywws,2013-04-24 10:02:00,
2013-04-24 03:07:00,38.3,35.1,30.35,North,-999,0.0,0.0,88,0.00,,,0.00,pywws,2013-04-24 10:07:00,
2013-04-24 03:12:00,38.1,34.9,30.35,North,-999,0.0,0.0,88,0.00,,,0.00,pywws,2013-04-24 10:12:00,
2013-04-24 03:17:00,37.9,34.7,30.35,North,-999,0.0,0.0,88,0.00,,,0.00,pywws,2013-04-24 10:17:00,
2013-04-24 03:22:00,37.8,34.5,30.35,North,-999,0.0,0.0,88,0.00,,,0.00,pywws,2013-04-24 10:22:00,
2013-04-24 03:27:00,37.8,34.5,30.35,North,-999,0.0,0.0,88,0.00,,,0.00,pywws,2013-04-24 10:27:00,
2013-04-24 03:32:00,37.8,34.5,30.35,North,-999,0.0,0.0,88,0.00,,,0.00,pywws,2013-04-24 10:32:00,
2013-04-24 03:37:00,37.6,34.4,30.35,North,-999,0.0,0.0,88,0.00,,,0.00,pywws,2013-04-24 10:37:00,
2013-04-24 03:42:00,37.6,34.4,30.35,North,-999,0.0,0.0,88,0.00,,,0.00,pywws,2013-04-24 10:42:00,
2013-04-24 03:47:00,37.4,34.2,30.35,North,-999,0.0,0.0,88,0.00,,,0.00,pywws,2013-04-24 10:47:00,
2013-04-24 03:52:00,37.4,34.2,30.35,North,-999,0.0,0.0,88,0.00,,,0.00,pywws,2013-04-24 10:52:00,
2013-04-24 03:57:00,37.0,32.7,30.35,North,-999,0.0,0.0,84,0.00,,,0.00,pywws,2013-04-24 10:57:00,
2013-04-24 04:02:00,36.7,32.3,30.35,North,-999,0.0,0.0,84,0.00,,,0.00,pywws,2013-04-24 11:02:00,
2013-04-24 04:07:00,36.5,32.1,30.35,North,-999,0.0,0.0,84,0.00,,,0.00,pywws,2013-04-24 11:07:00,
2013-04-24 04:12:00,36.3,32.0,30.36,North,-999,0.0,0.0,84,0.00,,,0.00,pywws,2013-04-24 11:12:00,
2013-04-24 04:17:00,36.3,32.3,30.35,North,-999,0.0,0.0,85,0.00,,,0.00,pywws,2013-04-24 11:17:00,
2013-04-24 04:22:00,36.1,32.1,30.36,North,-999,0.0,0.0,85,0.00,,,0.00,pywws,2013-04-24 11:22:00,
2013-04-24 04:27:00,36.0,31.9,30.37,North,-999,0.0,0.0,85,0.00,,,0.00,pywws,2013-04-24 11:27:00,
2013-04-24 04:32:00,36.0,31.9,30.36,North,-999,0.0,0.0,85,0.00,,,0.00,pywws,2013-04-24 11:32:00,
2013-04-24 04:37:00,35.8,31.7,30.36,North,-999,0.0,0.0,85,0.00,,,0.00,pywws,2013-04-24 11:37:00,
2013-04-24 04:42:00,35.4,31.7,30.36,North,-999,0.0,0.0,86,0.00,,,0.00,pywws,2013-04-24 11:42:00,
2013-04-24 04:47:00,35.2,31.5,30.36,North,-999,0.0,0.0,86,0.00,,,0.00,pywws,2013-04-24 11:47:00,
2013-04-24 05:02:00,34.9,31.1,30.36,North,-999,0.0,0.0,86,0.00,,,0.00,pywws,2013-04-24 12:02:00,
2013-04-24 05:07:00,34.9,31.1,30.36,North,-999,0.0,0.0,86,0.00,,,0.00,pywws,2013-04-24 12:07:00,
2013-04-24 05:12:00,34.7,30.9,30.36,North,-999,0.0,0.0,86,0.00,,,0.00,pywws,2013-04-24 12:12:00,
2013-04-24 05:17:00,34.9,31.1,30.36,North,-999,0.0,0.0,86,0.00,,,0.00,pywws,2013-04-24 12:17:00,
2013-04-24 05:22:00,34.5,30.8,30.36,North,-999,0.0,0.0,86,0.00,,,0.00,pywws,2013-04-24 12:22:00,
2013-04-24 05:27:00,34.3,30.6,30.36,North,-999,0.0,0.0,86,0.00,,,0.00,pywws,2013-04-24 12:27:00,
2013-04-24 05:32:00,34.3,30.9,30.36,North,-999,0.0,0.0,87,0.00,,,0.00,pywws,2013-04-24 12:32:00,
2013-04-24 05:37:00,33.8,30.3,30.36,North,-999,0.0,0.0,87,0.00,,,0.00,pywws,2013-04-24 12:37:00,
2013-04-24 05:42:00,33.8,30.1,30.36,North,-999,0.0,0.0,86,0.00,,,0.00,pywws,2013-04-24 12:42:00,
2013-04-24 05:47:00,34.0,30.5,30.36,North,-999,0.0,0.0,87,0.00,,,0.00,pywws,2013-04-24 12:47:00,
2013-04-24 05:52:00,34.2,30.7,30.36,North,-999,0.0,0.0,87,0.00,,,0.00,pywws,2013-04-24 12:52:00,
2013-04-24 05:57:00,33.4,30.3,30.35,North,-999,0.0,0.0,88,0.00,,,0.00,pywws,2013-04-24 12:57:00,
2013-04-24 06:02:00,33.3,30.1,30.35,North,-999,0.0,0.0,88,0.00,,,0.00,pywws,2013-04-24 13:02:00,
2013-04-24 06:07:00,33.4,30.3,30.35,North,-999,0.0,0.0,88,0.00,,,0.00,pywws,2013-04-24 13:07:00,
2013-04-24 06:12:00,33.4,30.3,30.35,North,-999,0.0,0.0,88,0.00,,,0.00,pywws,2013-04-24 13:12:00,
2013-04-24 06:17:00,33.6,30.5,30.35,North,-999,0.0,0.0,88,0.00,,,0.00,pywws,2013-04-24 13:17:00,
2013-04-24 06:22:00,33.6,30.5,30.35,North,-999,0.0,0.0,88,0.00,,,0.00,pywws,2013-04-24 13:22:00,
2013-04-24 06:27:00,33.6,30.5,30.35,North,-999,0.0,0.0,88,0.00,,,0.00,pywws,2013-04-24 13:27:00,
2013-04-24 06:32:00,33.6,30.5,30.35,North,-999,0.0,0.0,88,0.00,,,0.00,pywws,2013-04-24 13:32:00,
2013-04-24 06:37:00,33.6,30.5,30.35,North,-999,0.0,0.0,88,0.00,,,0.00,pywws,2013-04-24 13:37:00,
2013-04-24 06:42:00,33.6,30.5,30.35,North,-999,0.0,0.0,88,0.00,,,0.00,pywws,2013-04-24 13:42:00,
2013-04-24 06:47:00,33.6,30.7,30.35,North,-999,0.0,0.0,89,0.00,,,0.00,pywws,2013-04-24 13:47:00,
2013-04-24 06:52:00,33.4,30.6,30.35,North,-999,0.0,0.0,89,0.00,,,0.00,pywws,2013-04-24 13:52:00,
2013-04-24 06:57:00,33.6,30.7,30.35,North,-999,0.0,0.0,89,0.00,,,0.00,pywws,2013-04-24 13:57:00,
2013-04-24 07:02:00,33.6,30.7,30.35,North,-999,0.0,0.0,89,0.00,,,0.00,pywws,2013-04-24 14:02:00,
2013-04-24 07:07:00,33.8,30.6,30.35,North,-999,0.0,0.0,88,0.00,,,0.00,pywws,2013-04-24 14:07:00,
2013-04-24 07:12:00,33.8,30.6,30.36,North,-999,0.0,0.0,88,0.00,,,0.00,pywws,2013-04-24 14:12:00,
2013-04-24 07:17:00,33.6,30.7,30.36,North,-999,0.0,0.0,89,0.00,,,0.00,pywws,2013-04-24 14:17:00,
2013-04-24 07:22:00,34.0,31.1,30.35,North,-999,0.0,0.0,89,0.00,,,0.00,pywws,2013-04-24 14:22:00,
2013-04-24 07:27:00,33.1,30.2,30.35,North,-999,0.0,0.0,89,0.00,,,0.00,pywws,2013-04-24 14:27:00,
2013-04-24 07:32:00,32.9,30.0,30.35,North,-999,0.0,0.0,89,0.00,,,0.00,pywws,2013-04-24 14:32:00,
2013-04-24 07:37:00,33.3,30.4,30.35,North,-999,0.0,0.0,89,0.00,,,0.00,pywws,2013-04-24 14:37:00,
2013-04-24 07:42:00,33.3,30.4,30.35,North,-999,0.0,0.0,89,0.00,,,0.00,pywws,2013-04-24 14:42:00,
2013-04-24 07:47:00,33.3,30.4,30.35,North,-999,0.0,0.0,89,0.00,,,0.00,pywws,2013-04-24 14:47:00,
2013-04-24 08:02:00,33.4,30.6,30.35,North,-999,0.0,0.0,89,0.00,,,0.00,pywws,2013-04-24 15:02:00,
2013-04-24 08:07:00,34.5,31.6,30.35,North,-999,0.0,0.0,89,0.00,,,0.00,pywws,2013-04-24 15:07:00,
2013-04-24 08:12:00,34.9,32.0,30.35,North,-999,0.0,0.0,89,0.00,,,0.00,pywws,2013-04-24 15:12:00,
2013-04-24 08:17:00,34.9,32.0,30.34,North,-999,0.0,0.0,89,0.00,,,0.00,pywws,2013-04-24 15:17:00,
2013-04-24 08:22:00,35.6,32.7,30.35,North,-999,0.0,0.0,89,0.00,,,0.00,pywws,2013-04-24 15:22:00,
2013-04-24 08:27:00,36.1,33.2,30.35,North,-999,0.0,0.0,89,0.00,,,0.00,pywws,2013-04-24 15:27:00,
2013-04-24 08:32:00,36.7,33.7,30.35,North,-999,0.0,0.0,89,0.00,,,0.00,pywws,2013-04-24 15:32:00,
2013-04-24 08:37:00,37.0,34.4,30.35,North,-999,0.0,0.0,90,0.00,,,0.00,pywws,2013-04-24 15:37:00,
2013-04-24 08:42:00,38.1,36.5,30.35,North,-999,0.0,0.0,94,0.00,,,0.00,pywws,2013-04-24 15:42:00,
2013-04-24 08:47:00,38.1,36.8,30.35,North,-999,0.0,0.0,95,0.00,,,0.00,pywws,2013-04-24 15:47:00,
2013-04-24 09:02:00,38.8,37.5,30.34,North,-999,0.0,0.0,95,0.00,,,0.00,pywws,2013-04-24 16:02:00,
2013-04-24 09:07:00,40.8,39.2,30.34,North,-999,0.0,0.0,94,0.00,,,0.00,pywws,2013-04-24 16:07:00,
2013-04-24 09:12:00,41.4,39.8,30.34,North,-999,0.0,0.0,94,0.00,,,0.00,pywws,2013-04-24 16:12:00,
2013-04-24 09:17:00,41.7,39.8,30.34,North,-999,0.0,0.0,93,0.00,,,0.00,pywws,2013-04-24 16:17:00,
2013-04-24 09:22:00,42.4,40.6,30.33,North,-999,0.0,0.0,93,0.00,,,0.00,pywws,2013-04-24 16:22:00,
2013-04-24 09:27:00,43.0,40.8,30.34,North,-999,0.0,0.0,92,0.00,,,0.00,pywws,2013-04-24 16:27:00,
2013-04-24 09:32:00,43.5,41.4,30.33,North,-999,0.0,0.0,92,0.00,,,0.00,pywws,2013-04-24 16:32:00,
2013-04-24 09:37:00,45.1,42.1,30.33,East,90,1.6,2.2,89,0.00,,,0.00,pywws,2013-04-24 16:37:00,
2013-04-24 09:42:00,46.6,42.9,30.33,North,-999,0.0,0.0,87,0.00,,,0.00,pywws,2013-04-24 16:42:00,
2013-04-24 09:47:00,47.1,42.8,30.33,North,-999,0.0,1.6,85,0.00,,,0.00,pywws,2013-04-24 16:47:00,
2013-04-24 09:52:00,48.4,42.5,30.33,North,-999,0.0,0.7,80,0.00,,,0.00,pywws,2013-04-24 16:52:00,
2013-04-24 09:57:00,48.6,42.0,30.32,North,-999,0.0,2.2,78,0.00,,,0.00,pywws,2013-04-24 16:57:00,
2013-04-24 10:02:00,48.6,41.3,30.32,East,90,0.7,2.2,76,0.00,,,0.00,pywws,2013-04-24 17:02:00,
2013-04-24 10:07:00,48.7,41.5,30.32,East,90,1.6,2.2,76,0.00,,,0.00,pywws,2013-04-24 17:07:00,
2013-04-24 10:12:00,50.0,41.7,30.32,East,90,1.6,2.2,73,0.00,,,0.00,pywws,2013-04-24 17:12:00,
2013-04-24 10:17:00,50.5,41.5,30.32,East,90,0.7,1.6,71,0.00,,,0.00,pywws,2013-04-24 17:17:00,
2013-04-24 10:22:00,51.1,41.3,30.32,East,90,0.7,2.2,69,0.00,,,0.00,pywws,2013-04-24 17:22:00,
2013-04-24 10:27:00,51.6,41.4,30.32,East,90,1.6,3.1,68,0.00,,,0.00,pywws,2013-04-24 17:27:00,
2013-04-24 10:32:00,51.4,41.2,30.31,SE,135,2.2,3.8,68,0.00,,,0.00,pywws,2013-04-24 17:32:00,
2013-04-24 10:37:00,51.8,41.6,30.31,East,90,2.2,3.1,68,0.00,,,0.00,pywws,2013-04-24 17:37:00,
2013-04-24 10:42:00,52.5,41.9,30.31,East,90,0.7,1.6,67,0.00,,,0.00,pywws,2013-04-24 17:42:00,
2013-04-24 10:47:00,53.2,42.2,30.31,SE,135,1.6,3.1,66,0.00,,,0.00,pywws,2013-04-24 17:47:00,
2013-04-24 11:02:00,53.6,42.1,30.30,North,-999,0.0,0.0,65,0.00,,,0.00,pywws,2013-04-24 18:02:00,
2013-04-24 11:07:00,55.2,42.4,30.30,East,90,3.1,4.5,62,0.00,,,0.00,pywws,2013-04-24 18:07:00,
2013-04-24 11:12:00,54.3,42.0,30.30,East,90,1.6,3.1,63,0.00,,,0.00,pywws,2013-04-24 18:12:00,
2013-04-24 11:17:00,55.9,42.7,30.31,SE,135,2.2,3.8,61,0.00,,,0.00,pywws,2013-04-24 18:17:00,
2013-04-24 11:22:00,57.7,42.1,30.30,West,270,3.1,5.4,56,0.00,,,0.00,pywws,2013-04-24 18:22:00,
2013-04-24 11:27:00,57.2,41.6,30.30,East,90,1.6,2.2,56,0.00,,,0.00,pywws,2013-04-24 18:27:00,
2013-04-24 11:32:00,58.1,42.0,30.30,SE,135,1.6,2.2,55,0.00,,,0.00,pywws,2013-04-24 18:32:00,
2013-04-24 11:37:00,59.4,42.7,30.30,East,90,1.6,2.2,54,0.00,,,0.00,pywws,2013-04-24 18:37:00,
2013-04-24 11:42:00,59.7,42.1,30.29,East,90,2.2,3.1,52,0.00,,,0.00,pywws,2013-04-24 18:42:00,
2013-04-24 11:47:00,59.4,42.2,30.29,SE,135,3.8,5.4,53,0.00,,,0.00,pywws,2013-04-24 18:47:00,
2013-04-24 12:02:00,59.4,42.2,30.29,SE,135,3.8,5.4,53,0.00,,,0.00,pywws,2013-04-24 19:02:00,
2013-04-24 12:07:00,62.4,42.5,30.28,North,0,1.6,3.1,48,0.00,,,0.00,pywws,2013-04-24 19:07:00,
2013-04-24 12:12:00,62.8,41.7,30.28,South,180,1.6,2.2,46,0.00,,,0.00,pywws,2013-04-24 19:12:00,
2013-04-24 12:17:00,65.3,44.5,30.28,West,270,1.6,5.4,47,0.00,,,0.00,pywws,2013-04-24 19:17:00,
2013-04-24 12:22:00,63.7,41.9,30.28,East,90,0.7,2.2,45,0.00,,,0.00,pywws,2013-04-24 19:22:00,
2013-04-24 12:27:00,63.1,39.7,30.27,SE,135,4.5,7.6,42,0.00,,,0.00,pywws,2013-04-24 19:27:00,
2013-04-24 12:32:00,62.6,39.2,30.27,SE,135,3.1,3.8,42,0.00,,,0.00,pywws,2013-04-24 19:32:00,
2013-04-24 12:37:00,63.3,40.4,30.27,East,90,1.6,3.8,43,0.00,,,0.00,pywws,2013-04-24 19:37:00,
2013-04-24 12:42:00,64.9,40.0,30.26,South,180,0.7,1.6,40,0.00,,,0.00,pywws,2013-04-24 19:42:00,
2013-04-24 12:47:00,66.2,41.2,30.27,North,-999,0.0,0.7,40,0.00,,,0.00,pywws,2013-04-24 19:47:00,
2013-04-24 13:02:00,66.9,41.8,30.26,West,270,2.2,4.5,40,0.00,,,0.00,pywws,2013-04-24 20:02:00,
2013-04-24 13:07:00,66.7,40.3,30.25,South,180,2.2,3.1,38,0.00,,,0.00,pywws,2013-04-24 20:07:00,
2013-04-24 13:12:00,66.2,39.2,30.25,East,90,2.2,3.1,37,0.00,,,0.00,pywws,2013-04-24 20:12:00,
2013-04-24 13:17:00,67.3,40.1,30.24,South,180,1.6,3.1,37,0.00,,,0.00,pywws,2013-04-24 20:17:00,
2013-04-24 13:22:00,67.8,37.7,30.24,North,-999,0.0,0.0,33,0.00,,,0.00,pywws,2013-04-24 20:22:00,
2013-04-24 13:27:00,68.9,38.6,30.24,North,-999,0.0,1.6,33,0.00,,,0.00,pywws,2013-04-24 20:27:00,
2013-04-24 13:32:00,68.2,38.0,30.24,East,90,0.7,1.6,33,0.00,,,0.00,pywws,2013-04-24 20:32:00,
2013-04-24 13:37:00,70.3,35.7,30.24,South,180,2.2,3.8,28,0.00,,,0.00,pywws,2013-04-24 20:37:00,
2013-04-24 13:42:00,68.5,32.3,30.24,East,90,3.1,5.4,26,0.00,,,0.00,pywws,2013-04-24 20:42:00,
2013-04-24 13:47:00,68.5,35.0,30.24,East,90,1.6,2.2,29,0.00,,,0.00,pywws,2013-04-24 20:47:00,
2013-04-24 14:02:00,68.0,35.4,30.24,SE,135,2.2,3.8,30,0.00,,,0.00,pywws,2013-04-24 21:02:00,
2013-04-24 14:07:00,69.1,37.2,30.23,North,0,0.7,1.6,31,0.00,,,0.00,pywws,2013-04-24 21:07:00,
2013-04-24 14:12:00,67.3,36.4,30.23,West,270,2.2,3.8,32,0.00,,,0.00,pywws,2013-04-24 21:12:00,
2013-04-24 14:17:00,68.7,39.2,30.23,South,180,1.6,2.2,34,0.00,,,0.00,pywws,2013-04-24 21:17:00,
2013-04-24 14:22:00,68.2,38.7,30.23,South,180,0.7,2.2,34,0.00,,,0.00,pywws,2013-04-24 21:22:00,
2013-04-24 14:27:00,68.5,38.3,30.23,South,180,1.6,3.1,33,0.00,,,0.00,pywws,2013-04-24 21:27:00,
2013-04-24 14:32:00,68.5,39.1,30.22,South,180,1.6,3.1,34,0.00,,,0.00,pywws,2013-04-24 21:32:00,
2013-04-24 14:37:00,69.1,38.8,30.22,East,90,4.5,5.4,33,0.00,,,0.00,pywws,2013-04-24 21:37:00,
2013-04-24 14:42:00,67.3,37.9,30.22,East,90,2.2,3.8,34,0.00,,,0.00,pywws,2013-04-24 21:42:00,
2013-04-24 14:47:00,69.6,40.0,30.22,NW,315,1.6,3.1,34,0.00,,,0.00,pywws,2013-04-24 21:47:00,
2013-04-24 15:02:00,68.9,38.6,30.22,North,-999,0.0,0.7,33,0.00,,,0.00,pywws,2013-04-24 22:02:00,
2013-04-24 15:07:00,68.9,38.6,30.21,South,180,1.6,3.1,33,0.00,,,0.00,pywws,2013-04-24 22:07:00,
2013-04-24 15:12:00,68.9,37.0,30.21,South,180,1.6,3.1,31,0.00,,,0.00,pywws,2013-04-24 22:12:00,
2013-04-24 15:17:00,68.9,35.3,30.20,North,-999,0.0,0.0,29,0.00,,,0.00,pywws,2013-04-24 22:17:00,
2013-04-24 15:22:00,69.3,35.6,30.20,SE,135,2.2,3.8,29,0.00,,,0.00,pywws,2013-04-24 22:22:00,
2013-04-24 15:27:00,69.4,39.1,30.20,West,270,2.2,3.1,33,0.00,,,0.00,pywws,2013-04-24 22:27:00,
2013-04-24 15:32:00,68.5,34.1,30.20,NE,45,1.6,3.8,28,0.00,,,0.00,pywws,2013-04-24 22:32:00,
2013-04-24 15:37:00,69.1,38.8,30.19,East,90,0.7,2.2,33,0.00,,,0.00,pywws,2013-04-24 22:37:00,
2013-04-24 15:42:00,69.4,35.8,30.19,North,-999,0.0,0.7,29,0.00,,,0.00,pywws,2013-04-24 22:42:00,
2013-04-24 15:47:00,68.4,34.9,30.19,South,180,3.1,4.5,29,0.00,,,0.00,pywws,2013-04-24 22:47:00,
2013-04-24 16:02:00,68.7,34.3,30.19,South,180,3.1,4.5,28,0.00,,,0.00,pywws,2013-04-24 23:02:00,
2013-04-24 16:07:00,69.6,35.9,30.18,East,90,3.1,5.4,29,0.00,,,0.00,pywws,2013-04-24 23:07:00,
2013-04-24 16:12:00,68.5,33.2,30.18,North,-999,0.0,1.6,27,0.00,,,0.00,pywws,2013-04-24 23:12:00,
2013-04-24 16:17:00,68.4,32.1,30.18,SE,135,3.1,4.5,26,0.00,,,0.00,pywws,2013-04-24 23:17:00,
2013-04-24 16:22:00,68.4,33.1,30.17,South,180,2.2,3.8,27,0.00,,,0.00,pywws,2013-04-24 23:22:00,
2013-04-24 16:27:00,69.3,36.5,30.17,East,90,0.7,1.6,30,0.00,,,0.00,pywws,2013-04-24 23:27:00,
2013-04-24 16:32:00,69.3,32.9,30.17,North,-999,0.0,2.2,26,0.00,,,0.00,pywws,2013-04-24 23:32:00,
2013-04-24 16:37:00,68.2,30.0,30.16,South,180,1.6,4.5,24,0.00,,,0.00,pywws,2013-04-24 23:37:00,
2013-04-24 16:42:00,69.3,30.9,30.16,South,180,2.2,3.1,24,0.00,,,0.00,pywws,2013-04-24 23:42:00,
2013-04-24 16:47:00,68.9,31.6,30.16,South,180,3.1,6.9,25,0.00,,,0.00,pywws,2013-04-24 23:47:00,
2013-04-24 17:02:00,68.4,32.1,30.16,East,90,2.2,3.8,26,0.00,,,0.00,pywws,2013-04-25 00:02:00,
2013-04-24 17:07:00,68.5,35.0,30.15,North,-999,0.0,0.7,29,0.00,,,0.00,pywws,2013-04-25 00:07:00,
2013-04-24 17:12:00,68.0,36.2,30.15,SE,135,0.7,3.8,31,0.00,,,0.00,pywws,2013-04-25 00:12:00,
2013-04-24 17:17:00,68.0,31.8,30.15,East,90,0.7,1.6,26,0.00,,,0.00,pywws,2013-04-25 00:17:00,
2013-04-24 17:22:00,67.8,31.7,30.14,South,180,1.6,3.8,26,0.00,,,0.00,pywws,2013-04-25 00:22:00,
2013-04-24 17:27:00,67.1,36.3,30.14,SE,135,2.2,3.1,32,0.00,,,0.00,pywws,2013-04-25 00:27:00,
2013-04-24 17:32:00,66.9,36.1,30.14,North,-999,0.0,0.0,32,0.00,,,0.00,pywws,2013-04-25 00:32:00,
2013-04-24 17:37:00,66.6,35.8,30.14,North,-999,0.0,1.6,32,0.00,,,0.00,pywws,2013-04-25 00:37:00,
2013-04-24 17:42:00,68.0,35.4,30.14,SE,135,3.1,4.5,30,0.00,,,0.00,pywws,2013-04-25 00:42:00,
2013-04-24 17:47:00,66.9,33.6,30.14,SE,135,0.7,1.6,29,0.00,,,0.00,pywws,2013-04-25 00:47:00,
2013-04-24 18:02:00,66.2,33.8,30.14,East,90,1.6,2.2,30,0.00,,,0.00,pywws,2013-04-25 01:02:00,
2013-04-24 18:07:00,65.8,38.8,30.14,North,-999,0.0,0.0,37,0.00,,,0.00,pywws,2013-04-25 01:07:00,
2013-04-24 18:12:00,65.8,39.5,30.14,North,-999,0.0,0.0,38,0.00,,,0.00,pywws,2013-04-25 01:12:00,
2013-04-24 18:17:00,65.7,38.0,30.14,NE,45,1.6,3.8,36,0.00,,,0.00,pywws,2013-04-25 01:17:00,
2013-04-24 18:22:00,65.1,37.5,30.13,East,90,1.6,3.8,36,0.00,,,0.00,pywws,2013-04-25 01:22:00,
2013-04-24 18:27:00,64.6,37.0,30.13,North,-999,0.0,1.6,36,0.00,,,0.00,pywws,2013-04-25 01:27:00,
2013-04-24 18:32:00,63.9,38.4,30.13,North,-999,0.0,0.0,39,0.00,,,0.00,pywws,2013-04-25 01:32:00,
2013-04-24 18:37:00,64.0,38.6,30.13,SE,135,0.7,1.6,39,0.00,,,0.00,pywws,2013-04-25 01:37:00,
2013-04-24 18:42:00,63.5,40.6,30.14,North,-999,0.0,0.0,43,0.00,,,0.00,pywws,2013-04-25 01:42:00,
2013-04-24 18:47:00,63.1,40.3,30.13,North,-999,0.0,0.0,43,0.00,,,0.00,pywws,2013-04-25 01:47:00,
2013-04-24 19:02:00,62.2,42.3,30.13,North,-999,0.0,0.0,48,0.00,,,0.00,pywws,2013-04-25 02:02:00,
2013-04-24 19:07:00,61.3,41.5,30.13,North,-999,0.0,1.6,48,0.00,,,0.00,pywws,2013-04-25 02:07:00,
2013-04-24 19:12:00,62.6,38.6,30.13,East,90,0.7,2.2,41,0.00,,,0.00,pywws,2013-04-25 02:12:00,
2013-04-24 19:17:00,61.9,41.4,30.13,North,-999,0.0,0.0,47,0.00,,,0.00,pywws,2013-04-25 02:17:00,
2013-04-24 19:22:00,60.8,41.0,30.12,North,-999,0.0,0.0,48,0.00,,,0.00,pywws,2013-04-25 02:22:00,
2013-04-24 19:27:00,61.3,39.2,30.12,North,-999,0.0,1.6,44,0.00,,,0.00,pywws,2013-04-25 02:27:00,
2013-04-24 19:32:00,61.3,39.2,30.12,East,90,2.2,3.1,44,0.00,,,0.00,pywws,2013-04-25 02:32:00,
2013-04-24 19:37:00,61.0,38.9,30.12,East,90,1.6,2.2,44,0.00,,,0.00,pywws,2013-04-25 02:37:00,
2013-04-24 19:42:00,59.4,42.7,30.12,North,-999,0.0,0.0,54,0.00,,,0.00,pywws,2013-04-25 02:42:00,
2013-04-24 19:47:00,58.6,42.5,30.12,North,-999,0.0,0.0,55,0.00,,,0.00,pywws,2013-04-25 02:47:00,
2013-04-24 20:02:00,58.3,42.7,30.12,North,-999,0.0,0.0,56,0.00,,,0.00,pywws,2013-04-25 03:02:00,
2013-04-24 20:07:00,55.6,44.0,30.11,North,-999,0.0,0.0,65,0.00,,,0.00,pywws,2013-04-25 03:07:00,
2013-04-24 20:12:00,55.4,43.8,30.11,North,-999,0.0,0.0,65,0.00,,,0.00,pywws,2013-04-25 03:12:00,
2013-04-24 20:17:00,54.7,43.9,30.11,North,-999,0.0,0.0,67,0.00,,,0.00,pywws,2013-04-25 03:17:00,
2013-04-24 20:22:00,54.3,43.2,30.11,North,-999,0.0,0.0,66,0.00,,,0.00,pywws,2013-04-25 03:22:00,
2013-04-24 20:27:00,54.0,42.9,30.11,North,-999,0.0,0.0,66,0.00,,,0.00,pywws,2013-04-25 03:27:00,
2013-04-24 20:32:00,53.6,42.9,30.11,North,-999,0.0,0.0,67,0.00,,,0.00,pywws,2013-04-25 03:32:00,
2013-04-24 20:37:00,53.1,43.2,30.11,North,-999,0.0,0.0,69,0.00,,,0.00,pywws,2013-04-25 03:37:00,
2013-04-24 20:42:00,52.7,43.6,30.11,North,-999,0.0,0.0,71,0.00,,,0.00,pywws,2013-04-25 03:42:00,
2013-04-24 20:47:00,52.9,42.6,30.11,North,-999,0.0,0.0,68,0.00,,,0.00,pywws,2013-04-25 03:47:00,
2013-04-24 20:52:00,52.3,43.2,30.11,North,-999,0.0,0.0,71,0.00,,,0.00,pywws,2013-04-25 03:52:00,
2013-04-24 20:57:00,52.2,43.0,30.11,North,-999,0.0,0.0,71,0.00,,,0.00,pywws,2013-04-25 03:57:00,
2013-04-24 21:02:00,52.0,42.9,30.11,North,-999,0.0,0.0,71,0.00,,,0.00,pywws,2013-04-25 04:02:00,
2013-04-24 21:07:00,51.6,42.9,30.11,North,-999,0.0,0.0,72,0.00,,,0.00,pywws,2013-04-25 04:07:00,
2013-04-24 21:12:00,51.3,42.9,30.11,North,-999,0.0,0.0,73,0.00,,,0.00,pywws,2013-04-25 04:12:00,
2013-04-24 21:17:00,50.9,42.6,30.11,North,-999,0.0,0.0,73,0.00,,,0.00,pywws,2013-04-25 04:17:00,
2013-04-24 21:22:00,50.5,42.2,30.12,North,-999,0.0,0.0,73,0.00,,,0.00,pywws,2013-04-25 04:22:00,
2013-04-24 21:27:00,50.2,41.9,30.11,North,-999,0.0,0.0,73,0.00,,,0.00,pywws,2013-04-25 04:27:00,
2013-04-24 21:32:00,50.2,41.9,30.11,North,-999,0.0,0.0,73,0.00,,,0.00,pywws,2013-04-25 04:32:00,
2013-04-24 21:37:00,49.6,41.7,30.11,North,-999,0.0,0.0,74,0.00,,,0.00,pywws,2013-04-25 04:37:00,
2013-04-24 21:42:00,49.3,41.7,30.12,North,-999,0.0,0.0,75,0.00,,,0.00,pywws,2013-04-25 04:42:00,
2013-04-24 21:47:00,49.1,41.9,30.11,North,-999,0.0,0.0,76,0.00,,,0.00,pywws,2013-04-25 04:47:00,
2013-04-24 21:52:00,49.1,41.9,30.12,North,-999,0.0,0.0,76,0.00,,,0.00,pywws,2013-04-25 04:52:00,
2013-04-24 21:57:00,48.9,41.7,30.12,North,-999,0.0,0.0,76,0.00,,,0.00,pywws,2013-04-25 04:57:00,
2013-04-24 22:02:00,48.4,41.2,30.11,North,-999,0.0,0.0,76,0.00,,,0.00,pywws,2013-04-25 05:02:00,
2013-04-24 22:07:00,48.0,41.2,30.11,North,-999,0.0,0.0,77,0.00,,,0.00,pywws,2013-04-25 05:07:00,
2013-04-24 22:12:00,47.7,41.1,30.11,North,-999,0.0,0.0,78,0.00,,,0.00,pywws,2013-04-25 05:12:00,
2013-04-24 22:17:00,47.5,41.0,30.11,North,-999,0.0,0.0,78,0.00,,,0.00,pywws,2013-04-25 05:17:00,
2013-04-24 22:22:00,47.3,40.8,30.11,North,-999,0.0,0.0,78,0.00,,,0.00,pywws,2013-04-25 05:22:00,
2013-04-24 22:27:00,47.1,40.6,30.11,North,-999,0.0,0.0,78,0.00,,,0.00,pywws,2013-04-25 05:27:00,
2013-04-24 22:32:00,46.9,40.1,30.11,North,-999,0.0,0.0,77,0.00,,,0.00,pywws,2013-04-25 05:32:00,
2013-04-24 22:37:00,46.8,39.9,30.11,North,-999,0.0,0.0,77,0.00,,,0.00,pywws,2013-04-25 05:37:00,
2013-04-24 22:42:00,46.4,39.9,30.11,North,-999,0.0,0.0,78,0.00,,,0.00,pywws,2013-04-25 05:42:00,
2013-04-24 22:47:00,46.4,39.9,30.11,North,-999,0.0,0.0,78,0.00,,,0.00,pywws,2013-04-25 05:47:00,
2013-04-24 23:02:00,46.0,40.5,30.11,North,-999,0.0,0.0,81,0.00,,,0.00,pywws,2013-04-25 06:02:00,
2013-04-24 23:07:00,45.3,39.8,30.11,North,-999,0.0,0.0,81,0.00,,,0.00,pywws,2013-04-25 06:07:00,
2013-04-24 23:12:00,45.1,39.7,30.11,North,-999,0.0,0.0,81,0.00,,,0.00,pywws,2013-04-25 06:12:00,
2013-04-24 23:17:00,45.0,39.5,30.11,North,-999,0.0,0.0,81,0.00,,,0.00,pywws,2013-04-25 06:17:00,
2013-04-24 23:22:00,44.8,39.3,30.11,North,-999,0.0,0.0,81,0.00,,,0.00,pywws,2013-04-25 06:22:00,
2013-04-24 23:27:00,44.6,39.1,30.11,North,-999,0.0,0.0,81,0.00,,,0.00,pywws,2013-04-25 06:27:00,
2013-04-24 23:32:00,44.4,39.3,30.10,North,-999,0.0,0.0,82,0.00,,,0.00,pywws,2013-04-25 06:32:00,
2013-04-24 23:37:00,44.6,39.5,30.10,North,-999,0.0,0.0,82,0.00,,,0.00,pywws,2013-04-25 06:37:00,
2013-04-24 23:42:00,44.6,39.5,30.10,North,-999,0.0,0.0,82,0.00,,,0.00,pywws,2013-04-25 06:42:00,
2013-04-24 23:47:00,44.6,39.8,30.10,North,-999,0.0,0.0,83,0.00,,,0.00,pywws,2013-04-25 06:47:00,